sensor_id;sensor_type;location;lat;lon;timestamp;P1;durP1;ratioP1;P2;durP2;ratioP2
25972;SDS011;13765;51.166;4.466;2023-08-08T00:00:21;9.93;;;2.90;;
25972;SDS011;13765;51.166;4.466;2023-08-08T00:02:47;13.48;;;3.38;;
25972;SDS011;13765;51.166;4.466;2023-08-08T00:05:15;10.85;;;2.80;;
25972;SDS011;13765;51.166;4.466;2023-08-08T00:07:40;12.63;;;2.75;;
25972;SDS011;13765;51.166;4.466;2023-08-08T00:10:06;4.90;;;2.60;;
25972;SDS011;13765;51.166;4.466;2023-08-08T00:12:36;9.23;;;3.17;;
25972;SDS011;13765;51.166;4.466;2023-08-08T00:15:02;12.63;;;3.13;;
25972;SDS011;13765;51.166;4.466;2023-08-08T00:17:28;17.15;;;3.42;;
25972;SDS011;13765;51.166;4.466;2023-08-08T00:19:54;12.98;;;3.08;;
25972;SDS011;13765;51.166;4.466;2023-08-08T00:22:19;12.98;;;2.97;;
25972;SDS011;13765;51.166;4.466;2023-08-08T00:24:45;15.35;;;3.72;;
25972;SDS011;13765;51.166;4.466;2023-08-08T00:27:11;13.65;;;3.15;;
25972;SDS011;13765;51.166;4.466;2023-08-08T00:29:36;10.68;;;3.28;;
25972;SDS011;13765;51.166;4.466;2023-08-08T00:32:05;18.02;;;3.55;;
25972;SDS011;13765;51.166;4.466;2023-08-08T00:34:30;15.82;;;3.35;;
25972;SDS011;13765;51.166;4.466;2023-08-08T00:36:56;9.68;;;3.03;;
25972;SDS011;13765;51.166;4.466;2023-08-08T00:39:22;10.25;;;3.30;;
25972;SDS011;13765;51.166;4.466;2023-08-08T00:41:47;15.95;;;3.33;;
25972;SDS011;13765;51.166;4.466;2023-08-08T00:44:13;12.98;;;3.40;;
25972;SDS011;13765;51.166;4.466;2023-08-08T00:46:41;14.43;;;3.75;;
25972;SDS011;13765;51.166;4.466;2023-08-08T00:49:09;14.68;;;3.72;;
25972;SDS011;13765;51.166;4.466;2023-08-08T00:51:35;11.40;;;3.65;;
25972;SDS011;13765;51.166;4.466;2023-08-08T00:54:01;12.63;;;3.72;;
25972;SDS011;13765;51.166;4.466;2023-08-08T00:56:28;10.85;;;3.15;;
25972;SDS011;13765;51.166;4.466;2023-08-08T00:58:54;12.63;;;3.33;;
25972;SDS011;13765;51.166;4.466;2023-08-08T01:01:19;13.05;;;3.95;;
25972;SDS011;13765;51.166;4.466;2023-08-08T01:03:45;18.75;;;4.53;;
25972;SDS011;13765;51.166;4.466;2023-08-08T01:08:52;15.52;;;3.70;;
25972;SDS011;13765;51.166;4.466;2023-08-08T01:11:26;15.68;;;3.80;;
25972;SDS011;13765;51.166;4.466;2023-08-08T01:13:54;21.02;;;4.03;;
25972;SDS011;13765;51.166;4.466;2023-08-08T01:16:21;16.23;;;3.58;;
25972;SDS011;13765;51.166;4.466;2023-08-08T01:18:48;12.70;;;3.75;;
25972;SDS011;13765;51.166;4.466;2023-08-08T01:21:15;14.45;;;4.10;;
25972;SDS011;13765;51.166;4.466;2023-08-08T01:23:46;14.35;;;3.92;;
25972;SDS011;13765;51.166;4.466;2023-08-08T01:26:32;20.58;;;3.88;;
25972;SDS011;13765;51.166;4.466;2023-08-08T01:28:58;14.18;;;3.47;;
25972;SDS011;13765;51.166;4.466;2023-08-08T01:31:24;18.05;;;3.88;;
25972;SDS011;13765;51.166;4.466;2023-08-08T01:33:50;16.10;;;3.65;;
25972;SDS011;13765;51.166;4.466;2023-08-08T01:36:27;20.15;;;4.13;;
25972;SDS011;13765;51.166;4.466;2023-08-08T01:38:59;17.55;;;4.47;;
25972;SDS011;13765;51.166;4.466;2023-08-08T01:41:33;21.63;;;4.60;;
25972;SDS011;13765;51.166;4.466;2023-08-08T01:44:02;24.63;;;3.92;;
25972;SDS011;13765;51.166;4.466;2023-08-08T01:46:28;17.40;;;4.28;;
25972;SDS011;13765;51.166;4.466;2023-08-08T01:48:54;24.23;;;4.50;;
25972;SDS011;13765;51.166;4.466;2023-08-08T01:51:22;11.38;;;3.72;;
25972;SDS011;13765;51.166;4.466;2023-08-08T01:53:52;14.07;;;4.07;;
25972;SDS011;13765;51.166;4.466;2023-08-08T01:56:18;17.80;;;3.92;;
25972;SDS011;13765;51.166;4.466;2023-08-08T01:58:46;17.58;;;4.30;;
25972;SDS011;13765;51.166;4.466;2023-08-08T02:01:11;24.30;;;4.93;;
25972;SDS011;13765;51.166;4.466;2023-08-08T02:03:37;17.85;;;4.50;;
25972;SDS011;13765;51.166;4.466;2023-08-08T02:06:03;16.70;;;4.10;;
25972;SDS011;13765;51.166;4.466;2023-08-08T02:08:28;18.52;;;4.70;;
25972;SDS011;13765;51.166;4.466;2023-08-08T02:10:54;21.85;;;5.50;;
25972;SDS011;13765;51.166;4.466;2023-08-08T02:13:20;18.67;;;4.47;;
25972;SDS011;13765;51.166;4.466;2023-08-08T02:15:45;14.82;;;4.07;;
25972;SDS011;13765;51.166;4.466;2023-08-08T02:18:11;24.38;;;4.90;;
25972;SDS011;13765;51.166;4.466;2023-08-08T02:20:37;23.65;;;4.80;;
25972;SDS011;13765;51.166;4.466;2023-08-08T02:23:02;19.42;;;3.95;;
25972;SDS011;13765;51.166;4.466;2023-08-08T02:25:28;24.35;;;4.93;;
25972;SDS011;13765;51.166;4.466;2023-08-08T02:27:55;17.48;;;4.03;;
25972;SDS011;13765;51.166;4.466;2023-08-08T02:30:24;16.38;;;4.80;;
25972;SDS011;13765;51.166;4.466;2023-08-08T02:32:49;23.85;;;4.55;;
25972;SDS011;13765;51.166;4.466;2023-08-08T02:35:15;18.70;;;4.53;;
25972;SDS011;13765;51.166;4.466;2023-08-08T02:37:41;15.63;;;4.45;;
25972;SDS011;13765;51.166;4.466;2023-08-08T02:40:06;19.10;;;4.45;;
25972;SDS011;13765;51.166;4.466;2023-08-08T02:42:33;19.98;;;4.93;;
25972;SDS011;13765;51.166;4.466;2023-08-08T02:44:58;10.85;;;3.63;;
25972;SDS011;13765;51.166;4.466;2023-08-08T02:47:24;20.95;;;4.80;;
25972;SDS011;13765;51.166;4.466;2023-08-08T02:49:50;19.85;;;5.47;;
25972;SDS011;13765;51.166;4.466;2023-08-08T02:52:18;22.20;;;4.78;;
25972;SDS011;13765;51.166;4.466;2023-08-08T02:54:43;17.17;;;4.20;;
25972;SDS011;13765;51.166;4.466;2023-08-08T02:57:09;21.58;;;4.80;;
25972;SDS011;13765;51.166;4.466;2023-08-08T02:59:37;20.90;;;4.80;;
25972;SDS011;13765;51.166;4.466;2023-08-08T03:02:03;18.42;;;4.93;;
25972;SDS011;13765;51.166;4.466;2023-08-08T03:04:29;21.35;;;4.93;;
25972;SDS011;13765;51.166;4.466;2023-08-08T03:06:55;23.35;;;5.80;;
25972;SDS011;13765;51.166;4.466;2023-08-08T03:09:23;17.40;;;4.97;;
25972;SDS011;13765;51.166;4.466;2023-08-08T03:11:49;18.35;;;4.53;;
25972;SDS011;13765;51.166;4.466;2023-08-08T03:14:15;22.30;;;5.18;;
25972;SDS011;13765;51.166;4.466;2023-08-08T03:16:40;21.38;;;5.82;;
25972;SDS011;13765;51.166;4.466;2023-08-08T03:19:06;25.40;;;5.70;;
25972;SDS011;13765;51.166;4.466;2023-08-08T03:21:31;24.75;;;7.18;;
25972;SDS011;13765;51.166;4.466;2023-08-08T03:23:57;19.33;;;5.15;;
25972;SDS011;13765;51.166;4.466;2023-08-08T03:26:23;18.85;;;5.22;;
25972;SDS011;13765;51.166;4.466;2023-08-08T03:28:51;21.10;;;5.20;;
25972;SDS011;13765;51.166;4.466;2023-08-08T03:31:18;21.08;;;5.07;;
25972;SDS011;13765;51.166;4.466;2023-08-08T03:33:44;19.40;;;5.68;;
25972;SDS011;13765;51.166;4.466;2023-08-08T03:36:10;17.83;;;5.60;;
25972;SDS011;13765;51.166;4.466;2023-08-08T03:38:36;18.00;;;5.25;;
25972;SDS011;13765;51.166;4.466;2023-08-08T03:41:03;20.42;;;4.97;;
25972;SDS011;13765;51.166;4.466;2023-08-08T03:43:32;15.27;;;4.90;;
25972;SDS011;13765;51.166;4.466;2023-08-08T03:45:57;19.40;;;5.25;;
25972;SDS011;13765;51.166;4.466;2023-08-08T03:48:25;24.38;;;4.70;;
25972;SDS011;13765;51.166;4.466;2023-08-08T03:50:51;19.60;;;4.78;;
25972;SDS011;13765;51.166;4.466;2023-08-08T03:53:17;21.88;;;5.40;;
25972;SDS011;13765;51.166;4.466;2023-08-08T03:55:42;22.45;;;6.95;;
25972;SDS011;13765;51.166;4.466;2023-08-08T03:58:10;17.33;;;4.90;;
25972;SDS011;13765;51.166;4.466;2023-08-08T04:00:38;26.55;;;5.40;;
25972;SDS011;13765;51.166;4.466;2023-08-08T04:03:12;24.98;;;5.60;;
25972;SDS011;13765;51.166;4.466;2023-08-08T04:05:41;23.48;;;6.20;;
25972;SDS011;13765;51.166;4.466;2023-08-08T04:08:11;23.63;;;5.22;;
25972;SDS011;13765;51.166;4.466;2023-08-08T04:10:40;22.02;;;5.45;;
25972;SDS011;13765;51.166;4.466;2023-08-08T04:13:08;21.20;;;5.40;;
25972;SDS011;13765;51.166;4.466;2023-08-08T04:15:36;19.08;;;4.95;;
25972;SDS011;13765;51.166;4.466;2023-08-08T04:18:02;20.35;;;5.35;;
25972;SDS011;13765;51.166;4.466;2023-08-08T04:20:31;26.08;;;5.65;;
25972;SDS011;13765;51.166;4.466;2023-08-08T04:22:57;22.30;;;5.25;;
25972;SDS011;13765;51.166;4.466;2023-08-08T04:25:22;20.40;;;5.10;;
25972;SDS011;13765;51.166;4.466;2023-08-08T04:27:48;17.00;;;4.75;;
25972;SDS011;13765;51.166;4.466;2023-08-08T04:30:16;16.63;;;4.97;;
25972;SDS011;13765;51.166;4.466;2023-08-08T04:32:41;18.92;;;6.30;;
25972;SDS011;13765;51.166;4.466;2023-08-08T04:35:12;27.48;;;5.47;;
25972;SDS011;13765;51.166;4.466;2023-08-08T04:37:37;22.60;;;5.40;;
25972;SDS011;13765;51.166;4.466;2023-08-08T04:40:03;19.73;;;5.63;;
25972;SDS011;13765;51.166;4.466;2023-08-08T04:42:29;19.65;;;4.82;;
25972;SDS011;13765;51.166;4.466;2023-08-08T04:44:55;24.33;;;5.32;;
25972;SDS011;13765;51.166;4.466;2023-08-08T04:47:21;21.48;;;5.72;;
25972;SDS011;13765;51.166;4.466;2023-08-08T04:49:46;22.48;;;5.47;;
25972;SDS011;13765;51.166;4.466;2023-08-08T04:52:12;25.55;;;5.82;;
25972;SDS011;13765;51.166;4.466;2023-08-08T04:54:38;24.20;;;5.10;;
25972;SDS011;13765;51.166;4.466;2023-08-08T04:57:03;21.35;;;5.95;;
25972;SDS011;13765;51.166;4.466;2023-08-08T04:59:29;22.05;;;5.78;;
25972;SDS011;13765;51.166;4.466;2023-08-08T05:01:55;24.42;;;6.03;;
25972;SDS011;13765;51.166;4.466;2023-08-08T05:04:20;24.42;;;5.55;;
25972;SDS011;13765;51.166;4.466;2023-08-08T05:06:46;24.20;;;5.28;;
25972;SDS011;13765;51.166;4.466;2023-08-08T05:09:12;19.80;;;5.88;;
25972;SDS011;13765;51.166;4.466;2023-08-08T05:11:37;27.80;;;6.25;;
25972;SDS011;13765;51.166;4.466;2023-08-08T05:14:05;24.08;;;6.40;;
25972;SDS011;13765;51.166;4.466;2023-08-08T05:16:31;18.95;;;5.45;;
25972;SDS011;13765;51.166;4.466;2023-08-08T05:18:58;20.92;;;5.55;;
25972;SDS011;13765;51.166;4.466;2023-08-08T05:21:24;20.50;;;5.03;;
25972;SDS011;13765;51.166;4.466;2023-08-08T05:23:50;19.20;;;5.18;;
25972;SDS011;13765;51.166;4.466;2023-08-08T05:26:17;21.10;;;6.05;;
25972;SDS011;13765;51.166;4.466;2023-08-08T05:28:46;20.17;;;5.60;;
25972;SDS011;13765;51.166;4.466;2023-08-08T05:31:11;24.88;;;5.88;;
25972;SDS011;13765;51.166;4.466;2023-08-08T05:33:37;21.13;;;5.25;;
25972;SDS011;13765;51.166;4.466;2023-08-08T05:36:05;20.40;;;4.95;;
25972;SDS011;13765;51.166;4.466;2023-08-08T05:38:30;17.77;;;4.82;;
25972;SDS011;13765;51.166;4.466;2023-08-08T05:40:56;18.65;;;5.15;;
25972;SDS011;13765;51.166;4.466;2023-08-08T05:43:24;19.23;;;6.20;;
25972;SDS011;13765;51.166;4.466;2023-08-08T05:45:49;18.45;;;5.35;;
25972;SDS011;13765;51.166;4.466;2023-08-08T05:48:15;21.27;;;5.43;;
25972;SDS011;13765;51.166;4.466;2023-08-08T05:50:41;18.83;;;4.72;;
25972;SDS011;13765;51.166;4.466;2023-08-08T05:53:07;22.10;;;6.45;;
25972;SDS011;13765;51.166;4.466;2023-08-08T05:55:32;20.48;;;5.70;;
25972;SDS011;13765;51.166;4.466;2023-08-08T05:57:58;20.60;;;5.22;;
25972;SDS011;13765;51.166;4.466;2023-08-08T06:00:26;19.88;;;4.82;;
25972;SDS011;13765;51.166;4.466;2023-08-08T06:02:52;25.20;;;5.20;;
25972;SDS011;13765;51.166;4.466;2023-08-08T06:05:21;14.80;;;4.50;;
25972;SDS011;13765;51.166;4.466;2023-08-08T06:07:48;21.77;;;5.88;;
25972;SDS011;13765;51.166;4.466;2023-08-08T06:10:14;22.80;;;5.35;;
25972;SDS011;13765;51.166;4.466;2023-08-08T06:12:39;16.55;;;5.20;;
25972;SDS011;13765;51.166;4.466;2023-08-08T06:15:05;19.25;;;5.00;;
25972;SDS011;13765;51.166;4.466;2023-08-08T06:17:36;15.75;;;4.75;;
25972;SDS011;13765;51.166;4.466;2023-08-08T06:20:04;19.92;;;4.75;;
25972;SDS011;13765;51.166;4.466;2023-08-08T06:22:31;16.77;;;4.50;;
25972;SDS011;13765;51.166;4.466;2023-08-08T06:24:57;18.63;;;4.50;;
25972;SDS011;13765;51.166;4.466;2023-08-08T06:27:25;16.40;;;4.63;;
25972;SDS011;13765;51.166;4.466;2023-08-08T06:29:50;16.95;;;5.00;;
25972;SDS011;13765;51.166;4.466;2023-08-08T06:32:17;18.13;;;5.00;;
25972;SDS011;13765;51.166;4.466;2023-08-08T06:34:42;23.20;;;4.63;;
25972;SDS011;13765;51.166;4.466;2023-08-08T06:37:08;21.60;;;4.10;;
25972;SDS011;13765;51.166;4.466;2023-08-08T06:39:36;16.77;;;4.18;;
25972;SDS011;13765;51.166;4.466;2023-08-08T06:42:05;23.92;;;5.00;;
25972;SDS011;13765;51.166;4.466;2023-08-08T06:44:40;17.67;;;3.88;;
25972;SDS011;13765;51.166;4.466;2023-08-08T06:47:09;13.48;;;4.30;;
25972;SDS011;13765;51.166;4.466;2023-08-08T06:49:40;14.52;;;3.83;;
25972;SDS011;13765;51.166;4.466;2023-08-08T06:52:06;16.63;;;3.63;;
25972;SDS011;13765;51.166;4.466;2023-08-08T06:54:32;16.75;;;4.00;;
25972;SDS011;13765;51.166;4.466;2023-08-08T06:57:00;14.93;;;3.55;;
25972;SDS011;13765;51.166;4.466;2023-08-08T06:59:27;15.07;;;4.03;;
25972;SDS011;13765;51.166;4.466;2023-08-08T07:01:53;14.70;;;3.83;;
25972;SDS011;13765;51.166;4.466;2023-08-08T07:04:18;19.92;;;4.97;;
25972;SDS011;13765;51.166;4.466;2023-08-08T07:06:44;17.90;;;3.88;;
25972;SDS011;13765;51.166;4.466;2023-08-08T07:09:10;15.00;;;3.90;;
25972;SDS011;13765;51.166;4.466;2023-08-08T07:11:36;24.90;;;4.93;;
25972;SDS011;13765;51.166;4.466;2023-08-08T07:14:02;20.27;;;4.50;;
25972;SDS011;13765;51.166;4.466;2023-08-08T07:16:28;14.85;;;4.32;;
25972;SDS011;13765;51.166;4.466;2023-08-08T07:18:54;18.13;;;4.25;;
25972;SDS011;13765;51.166;4.466;2023-08-08T07:21:19;13.40;;;4.25;;
25972;SDS011;13765;51.166;4.466;2023-08-08T07:23:45;19.95;;;4.18;;
25972;SDS011;13765;51.166;4.466;2023-08-08T07:26:11;14.75;;;3.95;;
25972;SDS011;13765;51.166;4.466;2023-08-08T07:28:37;11.95;;;3.70;;
25972;SDS011;13765;51.166;4.466;2023-08-08T07:31:02;16.88;;;3.85;;
25972;SDS011;13765;51.166;4.466;2023-08-08T07:33:28;21.35;;;4.47;;
25972;SDS011;13765;51.166;4.466;2023-08-08T07:35:54;15.98;;;4.03;;
25972;SDS011;13765;51.166;4.466;2023-08-08T07:38:22;15.82;;;3.97;;
25972;SDS011;13765;51.166;4.466;2023-08-08T07:40:47;13.50;;;4.63;;
25972;SDS011;13765;51.166;4.466;2023-08-08T07:43:13;12.95;;;4.13;;
25972;SDS011;13765;51.166;4.466;2023-08-08T07:45:39;17.00;;;4.07;;
25972;SDS011;13765;51.166;4.466;2023-08-08T07:48:10;18.50;;;4.00;;
25972;SDS011;13765;51.166;4.466;2023-08-08T07:50:35;17.17;;;3.90;;
25972;SDS011;13765;51.166;4.466;2023-08-08T07:53:03;17.58;;;4.15;;
25972;SDS011;13765;51.166;4.466;2023-08-08T07:55:29;14.27;;;4.25;;
25972;SDS011;13765;51.166;4.466;2023-08-08T07:57:54;17.30;;;4.05;;
25972;SDS011;13765;51.166;4.466;2023-08-08T08:00:20;31.17;;;4.63;;
25972;SDS011;13765;51.166;4.466;2023-08-08T08:02:46;19.75;;;4.45;;
25972;SDS011;13765;51.166;4.466;2023-08-08T08:05:15;15.65;;;3.72;;
25972;SDS011;13765;51.166;4.466;2023-08-08T08:07:41;18.50;;;3.85;;
25972;SDS011;13765;51.166;4.466;2023-08-08T08:10:08;15.05;;;4.22;;
25972;SDS011;13765;51.166;4.466;2023-08-08T08:12:35;15.63;;;4.20;;
25972;SDS011;13765;51.166;4.466;2023-08-08T08:15:03;11.55;;;3.60;;
25972;SDS011;13765;51.166;4.466;2023-08-08T08:17:29;15.23;;;4.60;;
25972;SDS011;13765;51.166;4.466;2023-08-08T08:19:55;23.75;;;6.00;;
25972;SDS011;13765;51.166;4.466;2023-08-08T08:22:21;17.02;;;4.95;;
25972;SDS011;13765;51.166;4.466;2023-08-08T08:24:46;20.60;;;4.55;;
25972;SDS011;13765;51.166;4.466;2023-08-08T08:27:12;18.85;;;3.75;;
25972;SDS011;13765;51.166;4.466;2023-08-08T08:29:38;13.52;;;3.78;;
25972;SDS011;13765;51.166;4.466;2023-08-08T08:32:06;13.80;;;4.00;;
25972;SDS011;13765;51.166;4.466;2023-08-08T08:34:32;18.13;;;4.10;;
25972;SDS011;13765;51.166;4.466;2023-08-08T08:36:58;13.10;;;4.00;;
25972;SDS011;13765;51.166;4.466;2023-08-08T08:39:24;12.82;;;3.97;;
25972;SDS011;13765;51.166;4.466;2023-08-08T08:41:52;11.68;;;4.97;;
25972;SDS011;13765;51.166;4.466;2023-08-08T08:44:22;21.98;;;4.80;;
25972;SDS011;13765;51.166;4.466;2023-08-08T08:46:48;17.58;;;6.10;;
25972;SDS011;13765;51.166;4.466;2023-08-08T08:49:17;16.38;;;4.35;;
25972;SDS011;13765;51.166;4.466;2023-08-08T08:51:44;20.88;;;6.78;;
25972;SDS011;13765;51.166;4.466;2023-08-08T08:54:10;21.85;;;7.07;;
25972;SDS011;13765;51.166;4.466;2023-08-08T08:56:36;17.15;;;5.72;;
25972;SDS011;13765;51.166;4.466;2023-08-08T08:59:02;12.85;;;4.00;;
25972;SDS011;13765;51.166;4.466;2023-08-08T09:01:30;16.05;;;4.75;;
25972;SDS011;13765;51.166;4.466;2023-08-08T09:03:58;19.90;;;4.93;;
25972;SDS011;13765;51.166;4.466;2023-08-08T09:06:24;13.02;;;4.00;;
25972;SDS011;13765;51.166;4.466;2023-08-08T09:08:51;17.15;;;5.15;;
25972;SDS011;13765;51.166;4.466;2023-08-08T09:11:17;20.38;;;5.43;;
25972;SDS011;13765;51.166;4.466;2023-08-08T09:13:43;15.77;;;4.82;;
25972;SDS011;13765;51.166;4.466;2023-08-08T09:16:08;15.77;;;3.70;;
25972;SDS011;13765;51.166;4.466;2023-08-08T09:18:34;13.32;;;3.35;;
25972;SDS011;13765;51.166;4.466;2023-08-08T09:21:03;20.20;;;4.63;;
25972;SDS011;13765;51.166;4.466;2023-08-08T09:23:29;14.23;;;3.85;;
25972;SDS011;13765;51.166;4.466;2023-08-08T09:25:55;11.20;;;3.33;;
25972;SDS011;13765;51.166;4.466;2023-08-08T09:28:21;14.70;;;3.75;;
25972;SDS011;13765;51.166;4.466;2023-08-08T09:30:46;17.83;;;4.10;;
25972;SDS011;13765;51.166;4.466;2023-08-08T09:33:17;13.77;;;3.33;;
25972;SDS011;13765;51.166;4.466;2023-08-08T09:35:44;31.70;;;5.07;;
25972;SDS011;13765;51.166;4.466;2023-08-08T09:38:10;17.80;;;3.97;;
25972;SDS011;13765;51.166;4.466;2023-08-08T09:40:36;12.52;;;3.60;;
25972;SDS011;13765;51.166;4.466;2023-08-08T09:43:04;10.60;;;2.70;;
25972;SDS011;13765;51.166;4.466;2023-08-08T09:45:36;11.30;;;2.90;;
25972;SDS011;13765;51.166;4.466;2023-08-08T09:48:06;17.90;;;3.55;;
25972;SDS011;13765;51.166;4.466;2023-08-08T09:50:34;15.82;;;4.05;;
25972;SDS011;13765;51.166;4.466;2023-08-08T09:53:04;10.43;;;2.83;;
25972;SDS011;13765;51.166;4.466;2023-08-08T09:55:30;10.70;;;2.95;;
25972;SDS011;13765;51.166;4.466;2023-08-08T09:57:57;9.55;;;2.40;;
25972;SDS011;13765;51.166;4.466;2023-08-08T10:00:26;13.98;;;3.00;;
25972;SDS011;13765;51.166;4.466;2023-08-08T10:02:53;5.80;;;2.60;;
25972;SDS011;13765;51.166;4.466;2023-08-08T10:05:21;7.75;;;2.25;;
25972;SDS011;13765;51.166;4.466;2023-08-08T10:07:48;10.07;;;2.20;;
25972;SDS011;13765;51.166;4.466;2023-08-08T10:10:14;7.53;;;2.38;;
25972;SDS011;13765;51.166;4.466;2023-08-08T10:12:41;6.72;;;2.03;;
25972;SDS011;13765;51.166;4.466;2023-08-08T10:15:09;9.55;;;2.67;;
25972;SDS011;13765;51.166;4.466;2023-08-08T10:17:39;7.38;;;2.30;;
25972;SDS011;13765;51.166;4.466;2023-08-08T10:20:10;5.40;;;1.98;;
25972;SDS011;13765;51.166;4.466;2023-08-08T10:22:42;4.70;;;1.92;;
25972;SDS011;13765;51.166;4.466;2023-08-08T10:25:24;7.10;;;2.05;;
25972;SDS011;13765;51.166;4.466;2023-08-08T10:28:01;9.07;;;1.90;;
25972;SDS011;13765;51.166;4.466;2023-08-08T10:30:41;6.78;;;1.77;;
25972;SDS011;13765;51.166;4.466;2023-08-08T10:33:14;9.48;;;2.10;;
25972;SDS011;13765;51.166;4.466;2023-08-08T10:38:15;10.60;;;2.17;;
25972;SDS011;13765;51.166;4.466;2023-08-08T10:40:43;5.60;;;1.85;;
25972;SDS011;13765;51.166;4.466;2023-08-08T10:43:10;7.85;;;2.10;;
25972;SDS011;13765;51.166;4.466;2023-08-08T10:45:42;7.85;;;2.03;;
25972;SDS011;13765;51.166;4.466;2023-08-08T10:48:09;8.98;;;1.70;;
25972;SDS011;13765;51.166;4.466;2023-08-08T10:50:41;7.88;;;2.20;;
25972;SDS011;13765;51.166;4.466;2023-08-08T10:53:08;7.63;;;2.20;;
25972;SDS011;13765;51.166;4.466;2023-08-08T10:55:37;13.57;;;2.15;;
25972;SDS011;13765;51.166;4.466;2023-08-08T11:00:33;7.50;;;1.83;;
25972;SDS011;13765;51.166;4.466;2023-08-08T11:03:00;10.52;;;1.98;;
25972;SDS011;13765;51.166;4.466;2023-08-08T11:05:29;8.73;;;2.33;;
25972;SDS011;13765;51.166;4.466;2023-08-08T11:07:59;7.50;;;2.13;;
25972;SDS011;13765;51.166;4.466;2023-08-08T11:10:25;8.73;;;2.67;;
25972;SDS011;13765;51.166;4.466;2023-08-08T11:12:57;5.75;;;2.55;;
25972;SDS011;13765;51.166;4.466;2023-08-08T11:15:24;10.60;;;2.45;;
25972;SDS011;13765;51.166;4.466;2023-08-08T11:17:53;10.25;;;2.55;;
25972;SDS011;13765;51.166;4.466;2023-08-08T11:20:21;8.48;;;2.03;;
25972;SDS011;13765;51.166;4.466;2023-08-08T11:22:54;8.27;;;2.20;;
25972;SDS011;13765;51.166;4.466;2023-08-08T11:25:22;8.73;;;2.47;;
25972;SDS011;13765;51.166;4.466;2023-08-08T11:27:51;6.47;;;2.15;;
25972;SDS011;13765;51.166;4.466;2023-08-08T11:30:20;10.63;;;2.47;;
25972;SDS011;13765;51.166;4.466;2023-08-08T11:32:47;8.77;;;2.33;;
25972;SDS011;13765;51.166;4.466;2023-08-08T11:35:17;7.15;;;2.20;;
25972;SDS011;13765;51.166;4.466;2023-08-08T11:37:46;7.68;;;2.42;;
25972;SDS011;13765;51.166;4.466;2023-08-08T11:40:13;8.65;;;2.22;;
25972;SDS011;13765;51.166;4.466;2023-08-08T11:42:40;9.10;;;2.13;;
25972;SDS011;13765;51.166;4.466;2023-08-08T11:45:08;24.00;;;3.83;;
25972;SDS011;13765;51.166;4.466;2023-08-08T11:47:34;18.35;;;3.78;;
25972;SDS011;13765;51.166;4.466;2023-08-08T11:50:03;11.35;;;2.58;;
25972;SDS011;13765;51.166;4.466;2023-08-08T11:52:30;17.40;;;2.95;;
25972;SDS011;13765;51.166;4.466;2023-08-08T11:54:58;11.73;;;2.90;;
25972;SDS011;13765;51.166;4.466;2023-08-08T11:57:25;8.90;;;2.65;;
25972;SDS011;13765;51.166;4.466;2023-08-08T11:59:55;10.90;;;3.33;;
25972;SDS011;13765;51.166;4.466;2023-08-08T12:02:22;7.22;;;2.38;;
25972;SDS011;13765;51.166;4.466;2023-08-08T12:04:48;6.80;;;2.90;;
25972;SDS011;13765;51.166;4.466;2023-08-08T12:07:14;10.05;;;2.70;;
25972;SDS011;13765;51.166;4.466;2023-08-08T12:09:42;8.63;;;3.03;;
25972;SDS011;13765;51.166;4.466;2023-08-08T12:12:08;8.98;;;2.88;;
25972;SDS011;13765;51.166;4.466;2023-08-08T12:14:42;10.02;;;3.42;;
25972;SDS011;13765;51.166;4.466;2023-08-08T12:17:12;9.23;;;2.90;;
25972;SDS011;13765;51.166;4.466;2023-08-08T12:19:38;7.63;;;3.00;;
25972;SDS011;13765;51.166;4.466;2023-08-08T12:22:11;11.63;;;3.20;;
25972;SDS011;13765;51.166;4.466;2023-08-08T12:24:37;11.70;;;2.83;;
25972;SDS011;13765;51.166;4.466;2023-08-08T12:27:05;10.80;;;2.97;;
25972;SDS011;13765;51.166;4.466;2023-08-08T12:29:30;7.35;;;2.70;;
25972;SDS011;13765;51.166;4.466;2023-08-08T12:31:58;8.10;;;2.63;;
25972;SDS011;13765;51.166;4.466;2023-08-08T12:34:27;10.98;;;2.60;;
25972;SDS011;13765;51.166;4.466;2023-08-08T12:36:55;8.73;;;2.65;;
25972;SDS011;13765;51.166;4.466;2023-08-08T12:39:21;6.38;;;2.58;;
25972;SDS011;13765;51.166;4.466;2023-08-08T12:41:47;8.43;;;2.85;;
25972;SDS011;13765;51.166;4.466;2023-08-08T12:44:15;9.45;;;2.95;;
25972;SDS011;13765;51.166;4.466;2023-08-08T12:46:40;5.88;;;2.20;;
25972;SDS011;13765;51.166;4.466;2023-08-08T12:49:08;9.25;;;2.72;;
25972;SDS011;13765;51.166;4.466;2023-08-08T12:51:34;8.80;;;2.55;;
25972;SDS011;13765;51.166;4.466;2023-08-08T12:54:00;12.60;;;2.60;;
25972;SDS011;13765;51.166;4.466;2023-08-08T12:56:25;6.03;;;2.13;;
25972;SDS011;13765;51.166;4.466;2023-08-08T12:58:51;53.20;;;6.82;;
25972;SDS011;13765;51.166;4.466;2023-08-08T13:01:21;5.38;;;1.83;;
25972;SDS011;13765;51.166;4.466;2023-08-08T13:03:47;3.95;;;2.00;;
25972;SDS011;13765;51.166;4.466;2023-08-08T13:06:12;10.40;;;2.90;;
25972;SDS011;13765;51.166;4.466;2023-08-08T13:08:40;5.07;;;2.22;;
25972;SDS011;13765;51.166;4.466;2023-08-08T13:11:06;4.32;;;1.73;;
25972;SDS011;13765;51.166;4.466;2023-08-08T13:13:32;5.68;;;2.60;;
25972;SDS011;13765;51.166;4.466;2023-08-08T13:15:58;7.00;;;2.30;;
25972;SDS011;13765;51.166;4.466;2023-08-08T13:18:28;7.03;;;2.00;;
25972;SDS011;13765;51.166;4.466;2023-08-08T13:20:55;5.72;;;2.30;;
25972;SDS011;13765;51.166;4.466;2023-08-08T13:23:20;5.78;;;2.35;;
25972;SDS011;13765;51.166;4.466;2023-08-08T13:25:46;5.97;;;2.35;;
25972;SDS011;13765;51.166;4.466;2023-08-08T13:28:13;7.72;;;2.30;;
25972;SDS011;13765;51.166;4.466;2023-08-08T13:30:39;6.25;;;1.55;;
25972;SDS011;13765;51.166;4.466;2023-08-08T13:33:07;5.53;;;1.85;;
25972;SDS011;13765;51.166;4.466;2023-08-08T13:35:32;5.07;;;1.70;;
25972;SDS011;13765;51.166;4.466;2023-08-08T13:37:59;7.25;;;2.00;;
25972;SDS011;13765;51.166;4.466;2023-08-08T13:42:59;5.22;;;1.60;;
25972;SDS011;13765;51.166;4.466;2023-08-08T13:48:00;6.78;;;2.00;;
25972;SDS011;13765;51.166;4.466;2023-08-08T13:50:25;4.38;;;1.50;;
25972;SDS011;13765;51.166;4.466;2023-08-08T13:52:51;6.95;;;2.08;;
25972;SDS011;13765;51.166;4.466;2023-08-08T13:55:18;3.58;;;2.05;;
25972;SDS011;13765;51.166;4.466;2023-08-08T13:57:43;5.13;;;1.77;;
25972;SDS011;13765;51.166;4.466;2023-08-08T14:00:10;6.10;;;1.80;;
25972;SDS011;13765;51.166;4.466;2023-08-08T14:02:37;5.75;;;1.85;;
25972;SDS011;13765;51.166;4.466;2023-08-08T14:05:04;9.82;;;1.90;;
25972;SDS011;13765;51.166;4.466;2023-08-08T14:10:03;7.78;;;1.60;;
25972;SDS011;13765;51.166;4.466;2023-08-08T14:15:02;6.50;;;2.00;;
25972;SDS011;13765;51.166;4.466;2023-08-08T14:17:29;8.27;;;1.98;;
25972;SDS011;13765;51.166;4.466;2023-08-08T14:19:54;9.60;;;2.35;;
25972;SDS011;13765;51.166;4.466;2023-08-08T14:22:20;7.07;;;1.83;;
25972;SDS011;13765;51.166;4.466;2023-08-08T14:24:48;5.10;;;1.80;;
25972;SDS011;13765;51.166;4.466;2023-08-08T14:27:13;5.32;;;1.50;;
25972;SDS011;13765;51.166;4.466;2023-08-08T14:29:39;6.53;;;1.70;;
25972;SDS011;13765;51.166;4.466;2023-08-08T14:32:09;8.73;;;2.83;;
25972;SDS011;13765;51.166;4.466;2023-08-08T14:34:35;4.53;;;1.70;;
25972;SDS011;13765;51.166;4.466;2023-08-08T14:37:04;5.07;;;2.15;;
25972;SDS011;13765;51.166;4.466;2023-08-08T14:39:30;6.13;;;1.92;;
25972;SDS011;13765;51.166;4.466;2023-08-08T14:41:56;5.80;;;1.65;;
25972;SDS011;13765;51.166;4.466;2023-08-08T14:44:22;5.97;;;2.10;;
25972;SDS011;13765;51.166;4.466;2023-08-08T14:46:49;4.35;;;1.50;;
25972;SDS011;13765;51.166;4.466;2023-08-08T14:49:14;5.10;;;1.55;;
25972;SDS011;13765;51.166;4.466;2023-08-08T14:51:40;4.85;;;2.38;;
25972;SDS011;13765;51.166;4.466;2023-08-08T14:54:08;5.10;;;1.90;;